sensor_id;sensor_type;location;lat;lon;timestamp;pressure;altitude;pressure_sealevel;temperature;humidity
64404;BME280;50726;54.912;-8.392;2022-12-19T00:01:42;97881.63;;;30.62;74.61
64404;BME280;50726;54.912;-8.392;2022-12-19T00:04:10;97895.75;;;30.02;76.13
64404;BME280;50726;54.912;-8.392;2022-12-19T00:06:37;97883.19;;;30.93;72.05
64404;BME280;50726;54.912;-8.392;2022-12-19T00:09:04;97880.91;;;31.50;70.70
64404;BME280;50726;54.912;-8.392;2022-12-19T00:11:31;97865.28;;;30.33;73.06
64404;BME280;50726;54.912;-8.392;2022-12-19T00:13:58;97881.81;;;30.79;72.42
64404;BME280;50726;54.912;-8.392;2022-12-19T00:16:27;97880.47;;;31.53;69.93
64404;BME280;50726;54.912;-8.392;2022-12-19T00:18:54;97877.91;;;31.34;70.06
64404;BME280;50726;54.912;-8.392;2022-12-19T00:21:24;97854.09;;;31.31;67.40
64404;BME280;50726;54.912;-8.392;2022-12-19T00:23:50;97877.84;;;32.17;65.81
64404;BME280;50726;54.912;-8.392;2022-12-19T00:26:26;97858.66;;;31.19;66.49
64404;BME280;50726;54.912;-8.392;2022-12-19T00:29:03;97846.16;;;31.83;65.58
64404;BME280;50726;54.912;-8.392;2022-12-19T00:31:32;97865.78;;;32.53;65.64
64404;BME280;50726;54.912;-8.392;2022-12-19T00:33:59;97862.50;;;31.76;68.56
64404;BME280;50726;54.912;-8.392;2022-12-19T00:36:27;97851.75;;;30.09;71.78
64404;BME280;50726;54.912;-8.392;2022-12-19T00:38:56;97856.31;;;30.51;72.85
64404;BME280;50726;54.912;-8.392;2022-12-19T00:41:25;97837.25;;;31.53;71.23
64404;BME280;50726;54.912;-8.392;2022-12-19T00:43:56;97841.78;;;31.00;73.70
64404;BME280;50726;54.912;-8.392;2022-12-19T00:46:22;97830.25;;;31.16;70.79
64404;BME280;50726;54.912;-8.392;2022-12-19T00:49:01;97837.44;;;30.87;72.22
64404;BME280;50726;54.912;-8.392;2022-12-19T00:51:29;97823.00;;;29.91;73.87
64404;BME280;50726;54.912;-8.392;2022-12-19T00:54:00;97836.53;;;30.81;73.40
64404;BME280;50726;54.912;-8.392;2022-12-19T00:56:31;97825.69;;;31.29;70.39
64404;BME280;50726;54.912;-8.392;2022-12-19T00:58:58;97845.75;;;30.49;72.78
64404;BME280;50726;54.912;-8.392;2022-12-19T01:01:35;97829.75;;;30.12;74.63
64404;BME280;50726;54.912;-8.392;2022-12-19T01:04:03;97827.72;;;30.98;74.75
64404;BME280;50726;54.912;-8.392;2022-12-19T01:06:48;97836.16;;;31.01;72.61
64404;BME280;50726;54.912;-8.392;2022-12-19T01:12:32;97840.09;;;31.34;71.26
64404;BME280;50726;54.912;-8.392;2022-12-19T01:15:13;97829.41;;;30.20;75.61
64404;BME280;50726;54.912;-8.392;2022-12-19T01:17:41;97834.38;;;32.01;70.09
64404;BME280;50726;54.912;-8.392;2022-12-19T01:20:09;97818.53;;;30.39;72.07
64404;BME280;50726;54.912;-8.392;2022-12-19T01:22:35;97819.19;;;29.49;74.57
64404;BME280;50726;54.912;-8.392;2022-12-19T01:25:04;97830.72;;;31.25;73.18
64404;BME280;50726;54.912;-8.392;2022-12-19T01:27:33;97829.78;;;31.31;70.84
64404;BME280;50726;54.912;-8.392;2022-12-19T01:30:00;97820.06;;;31.06;71.00
64404;BME280;50726;54.912;-8.392;2022-12-19T01:32:27;97807.41;;;30.59;73.15
64404;BME280;50726;54.912;-8.392;2022-12-19T01:35:00;97820.44;;;31.80;68.89
64404;BME280;50726;54.912;-8.392;2022-12-19T01:37:31;97814.41;;;31.90;70.37
64404;BME280;50726;54.912;-8.392;2022-12-19T01:40:09;97808.91;;;32.31;68.72
64404;BME280;50726;54.912;-8.392;2022-12-19T01:42:36;97798.25;;;31.49;69.88
64404;BME280;50726;54.912;-8.392;2022-12-19T01:45:28;97815.25;;;31.08;71.13
64404;BME280;50726;54.912;-8.392;2022-12-19T01:48:13;97802.66;;;32.65;69.13
64404;BME280;50726;54.912;-8.392;2022-12-19T01:53:30;97793.22;;;31.70;71.68
64404;BME280;50726;54.912;-8.392;2022-12-19T01:56:00;97771.81;;;31.80;68.73
64404;BME280;50726;54.912;-8.392;2022-12-19T01:58:28;97790.88;;;32.54;67.00
64404;BME280;50726;54.912;-8.392;2022-12-19T02:00:57;97778.84;;;30.70;70.11
64404;BME280;50726;54.912;-8.392;2022-12-19T02:03:27;97800.69;;;31.21;70.86
64404;BME280;50726;54.912;-8.392;2022-12-19T02:05:55;97761.94;;;31.16;70.57
64404;BME280;50726;54.912;-8.392;2022-12-19T02:08:31;97783.19;;;32.85;79.50
64404;BME280;50726;54.912;-8.392;2022-12-19T02:10:57;97785.25;;;30.33;73.43
64404;BME280;50726;54.912;-8.392;2022-12-19T02:13:36;97769.44;;;31.38;70.92
64404;BME280;50726;54.912;-8.392;2022-12-19T02:19:30;97766.81;;;33.14;69.04
64404;BME280;50726;54.912;-8.392;2022-12-19T02:24:53;97780.06;;;31.03;72.06
64404;BME280;50726;54.912;-8.392;2022-12-19T02:36:03;97756.53;;;32.03;68.31
64404;BME280;50726;54.912;-8.392;2022-12-19T02:41:50;97729.78;;;32.58;66.96
64404;BME280;50726;54.912;-8.392;2022-12-19T02:44:32;97753.84;;;31.86;71.20
64404;BME280;50726;54.912;-8.392;2022-12-19T02:47:03;97762.00;;;32.60;70.18
64404;BME280;50726;54.912;-8.392;2022-12-19T02:49:35;97758.50;;;31.61;69.71
64404;BME280;50726;54.912;-8.392;2022-12-19T02:54:49;97762.84;;;33.50;67.53
64404;BME280;50726;54.912;-8.392;2022-12-19T03:00:21;97759.47;;;32.36;68.75
64404;BME280;50726;54.912;-8.392;2022-12-19T03:03:18;97758.63;;;31.26;100.00
64404;BME280;50726;54.912;-8.392;2022-12-19T03:09:31;97764.66;;;32.37;73.20
64404;BME280;50726;54.912;-8.392;2022-12-19T03:11:50;97784.06;;;32.34;72.29
64404;BME280;50726;54.912;-8.392;2022-12-19T03:14:19;97773.34;;;32.22;71.45
64404;BME280;50726;54.912;-8.392;2022-12-19T03:16:46;97752.66;;;30.83;72.88
64404;BME280;50726;54.912;-8.392;2022-12-19T03:19:13;97760.66;;;31.88;73.63
64404;BME280;50726;54.912;-8.392;2022-12-19T03:21:43;97754.19;;;32.24;71.08
64404;BME280;50726;54.912;-8.392;2022-12-19T03:24:11;97748.31;;;30.22;77.04
64404;BME280;50726;54.912;-8.392;2022-12-19T03:26:53;97744.44;;;31.59;70.69
64404;BME280;50726;54.912;-8.392;2022-12-19T03:29:33;97746.94;;;32.47;70.02
64404;BME280;50726;54.912;-8.392;2022-12-19T03:32:02;97742.06;;;33.05;68.26
64404;BME280;50726;54.912;-8.392;2022-12-19T03:34:39;97758.34;;;33.33;66.99
64404;BME280;50726;54.912;-8.392;2022-12-19T03:37:08;97743.97;;;33.32;67.19
64404;BME280;50726;54.912;-8.392;2022-12-19T03:39:39;97748.72;;;33.20;67.53
64404;BME280;50726;54.912;-8.392;2022-12-19T03:42:06;97743.50;;;33.13;65.17
64404;BME280;50726;54.912;-8.392;2022-12-19T03:44:54;97738.16;;;33.18;67.85
64404;BME280;50726;54.912;-8.392;2022-12-19T03:47:46;97743.84;;;33.72;65.84
64404;BME280;50726;54.912;-8.392;2022-12-19T03:50:57;97716.97;;;32.31;68.15
64404;BME280;50726;54.912;-8.392;2022-12-19T03:57:19;97732.38;;;32.13;70.41
64404;BME280;50726;54.912;-8.392;2022-12-19T03:59:55;97728.69;;;32.76;69.71
64404;BME280;50726;54.912;-8.392;2022-12-19T04:02:26;97716.69;;;31.47;71.37
64404;BME280;50726;54.912;-8.392;2022-12-19T04:05:03;97702.72;;;32.19;69.00
64404;BME280;50726;54.912;-8.392;2022-12-19T04:07:37;97717.22;;;32.91;68.73
64404;BME280;50726;54.912;-8.392;2022-12-19T04:10:20;97710.19;;;33.40;66.06
64404;BME280;50726;54.912;-8.392;2022-12-19T04:15:13;97718.03;;;32.47;67.25
64404;BME280;50726;54.912;-8.392;2022-12-19T04:17:52;97719.31;;;33.84;65.17
64404;BME280;50726;54.912;-8.392;2022-12-19T04:20:24;97708.13;;;33.80;65.28
64404;BME280;50726;54.912;-8.392;2022-12-19T04:25:40;97714.63;;;32.57;67.19
64404;BME280;50726;54.912;-8.392;2022-12-19T04:31:15;97709.22;;;32.57;68.54
64404;BME280;50726;54.912;-8.392;2022-12-19T04:33:42;97714.59;;;31.83;69.92
64404;BME280;50726;54.912;-8.392;2022-12-19T04:36:09;97707.81;;;32.15;69.63
64404;BME280;50726;54.912;-8.392;2022-12-19T04:38:35;97714.88;;;30.83;71.92
64404;BME280;50726;54.912;-8.392;2022-12-19T04:41:04;97693.22;;;31.06;71.09
64404;BME280;50726;54.912;-8.392;2022-12-19T04:43:31;97685.03;;;32.11;69.56
64404;BME280;50726;54.912;-8.392;2022-12-19T04:45:56;97680.72;;;32.10;70.21
64404;BME280;50726;54.912;-8.392;2022-12-19T04:48:22;97687.16;;;32.65;68.27
64404;BME280;50726;54.912;-8.392;2022-12-19T04:50:48;97681.78;;;31.92;71.12
64404;BME280;50726;54.912;-8.392;2022-12-19T04:53:14;97683.63;;;32.43;69.01
64404;BME280;50726;54.912;-8.392;2022-12-19T04:55:39;97680.78;;;31.81;69.11
64404;BME280;50726;54.912;-8.392;2022-12-19T04:58:07;97694.53;;;31.96;71.23
64404;BME280;50726;54.912;-8.392;2022-12-19T05:00:37;97683.94;;;32.46;68.96
64404;BME280;50726;54.912;-8.392;2022-12-19T05:03:07;97703.91;;;33.07;68.27
64404;BME280;50726;54.912;-8.392;2022-12-19T05:06:10;97678.16;;;33.04;65.89
64404;BME280;50726;54.912;-8.392;2022-12-19T05:08:43;97678.16;;;30.81;72.59
64404;BME280;50726;54.912;-8.392;2022-12-19T05:11:09;97688.31;;;33.74;65.73
64404;BME280;50726;54.912;-8.392;2022-12-19T05:13:38;97689.03;;;32.43;67.83
64404;BME280;50726;54.912;-8.392;2022-12-19T05:16:36;97689.50;;;33.89;65.02
64404;BME280;50726;54.912;-8.392;2022-12-19T05:19:16;97679.03;;;33.38;65.63
64404;BME280;50726;54.912;-8.392;2022-12-19T05:21:50;97677.94;;;32.44;66.96
64404;BME280;50726;54.912;-8.392;2022-12-19T05:24:33;97672.72;;;33.54;65.68
64404;BME280;50726;54.912;-8.392;2022-12-19T05:27:05;97681.84;;;32.76;67.03
64404;BME280;50726;54.912;-8.392;2022-12-19T05:29:30;97664.72;;;33.42;65.71
64404;BME280;50726;54.912;-8.392;2022-12-19T05:31:56;97694.03;;;32.17;66.87
64404;BME280;50726;54.912;-8.392;2022-12-19T05:34:23;97671.16;;;33.64;65.21
64404;BME280;50726;54.912;-8.392;2022-12-19T05:36:49;97670.13;;;30.99;69.38
64404;BME280;50726;54.912;-8.392;2022-12-19T05:39:15;97665.81;;;32.47;65.71
64404;BME280;50726;54.912;-8.392;2022-12-19T05:41:41;97664.03;;;31.50;68.18
64404;BME280;50726;54.912;-8.392;2022-12-19T05:44:08;97651.88;;;33.55;64.85
64404;BME280;50726;54.912;-8.392;2022-12-19T05:46:34;97654.16;;;33.13;65.08
64404;BME280;50726;54.912;-8.392;2022-12-19T05:48:59;97648.94;;;33.06;66.23
64404;BME280;50726;54.912;-8.392;2022-12-19T05:51:25;97647.28;;;31.18;70.17
64404;BME280;50726;54.912;-8.392;2022-12-19T05:53:51;97644.91;;;33.09;65.91
64404;BME280;50726;54.912;-8.392;2022-12-19T05:56:20;97642.47;;;31.67;69.60
64404;BME280;50726;54.912;-8.392;2022-12-19T05:58:47;97634.44;;;31.26;70.28
64404;BME280;50726;54.912;-8.392;2022-12-19T06:01:20;97637.78;;;31.16;71.09
64404;BME280;50726;54.912;-8.392;2022-12-19T06:03:46;97628.63;;;31.63;68.50
64404;BME280;50726;54.912;-8.392;2022-12-19T06:06:15;97647.53;;;32.54;68.30
64404;BME280;50726;54.912;-8.392;2022-12-19T06:08:41;97639.84;;;31.72;70.63
64404;BME280;50726;54.912;-8.392;2022-12-19T06:11:08;97617.56;;;31.82;68.31
64404;BME280;50726;54.912;-8.392;2022-12-19T06:13:35;97633.03;;;31.69;69.95
64404;BME280;50726;54.912;-8.392;2022-12-19T06:16:07;97625.59;;;31.77;69.40
64404;BME280;50726;54.912;-8.392;2022-12-19T06:18:33;97616.50;;;31.31;71.85
64404;BME280;50726;54.912;-8.392;2022-12-19T06:21:05;97621.78;;;32.12;67.81
64404;BME280;50726;54.912;-8.392;2022-12-19T06:23:32;97625.91;;;31.46;70.57
64404;BME280;50726;54.912;-8.392;2022-12-19T06:26:00;97616.22;;;33.08;68.05
64404;BME280;50726;54.912;-8.392;2022-12-19T06:28:29;97626.19;;;33.35;66.91
64404;BME280;50726;54.912;-8.392;2022-12-19T06:30:56;97621.94;;;32.22;67.65
64404;BME280;50726;54.912;-8.392;2022-12-19T06:33:22;97630.09;;;31.54;69.79
64404;BME280;50726;54.912;-8.392;2022-12-19T06:35:55;97615.38;;;31.61;68.68
64404;BME280;50726;54.912;-8.392;2022-12-19T06:38:21;97613.94;;;33.00;67.63
64404;BME280;50726;54.912;-8.392;2022-12-19T06:40:47;97626.50;;;32.61;68.59
64404;BME280;50726;54.912;-8.392;2022-12-19T06:43:32;97607.72;;;31.58;69.67
64404;BME280;50726;54.912;-8.392;2022-12-19T06:45:57;97612.06;;;32.33;67.10
64404;BME280;50726;54.912;-8.392;2022-12-19T06:48:30;97600.75;;;33.36;65.43
64404;BME280;50726;54.912;-8.392;2022-12-19T06:50:56;97599.16;;;30.98;69.21
64404;BME280;50726;54.912;-8.392;2022-12-19T06:53:22;97613.38;;;31.40;70.02
64404;BME280;50726;54.912;-8.392;2022-12-19T06:55:51;97628.19;;;30.38;75.87
64404;BME280;50726;54.912;-8.392;2022-12-19T06:58:20;97605.84;;;28.74;78.61
64404;BME280;50726;54.912;-8.392;2022-12-19T07:00:50;97609.47;;;28.67;81.08
64404;BME280;50726;54.912;-8.392;2022-12-19T07:03:24;97597.78;;;29.35;84.36
64404;BME280;50726;54.912;-8.392;2022-12-19T07:05:53;97617.00;;;31.80;76.77
64404;BME280;50726;54.912;-8.392;2022-12-19T07:08:19;97595.00;;;31.37;76.22
64404;BME280;50726;54.912;-8.392;2022-12-19T07:10:45;97604.59;;;30.45;77.77
64404;BME280;50726;54.912;-8.392;2022-12-19T07:13:20;97592.34;;;32.33;72.40
64404;BME280;50726;54.912;-8.392;2022-12-19T07:15:49;97597.16;;;32.08;72.43
64404;BME280;50726;54.912;-8.392;2022-12-19T07:18:18;97578.72;;;31.02;71.58
64404;BME280;50726;54.912;-8.392;2022-12-19T07:20:44;97580.28;;;30.69;75.03
64404;BME280;50726;54.912;-8.392;2022-12-19T07:23:15;97582.47;;;31.65;72.34
64404;BME280;50726;54.912;-8.392;2022-12-19T07:25:44;97581.47;;;30.90;72.80
64404;BME280;50726;54.912;-8.392;2022-12-19T07:28:09;97581.03;;;30.52;76.27
64404;BME280;50726;54.912;-8.392;2022-12-19T07:30:35;97583.66;;;30.76;73.31
64404;BME280;50726;54.912;-8.392;2022-12-19T07:33:01;97578.44;;;28.53;80.72
64404;BME280;50726;54.912;-8.392;2022-12-19T07:35:27;97582.88;;;27.33;85.28
64404;BME280;50726;54.912;-8.392;2022-12-19T07:37:53;97568.25;;;29.59;76.76
64404;BME280;50726;54.912;-8.392;2022-12-19T07:40:19;97560.47;;;30.63;75.09
64404;BME280;50726;54.912;-8.392;2022-12-19T07:42:45;97567.91;;;30.85;75.08
64404;BME280;50726;54.912;-8.392;2022-12-19T07:45:11;97564.97;;;30.46;73.72
64404;BME280;50726;54.912;-8.392;2022-12-19T07:47:37;97581.78;;;30.77;74.10
64404;BME280;50726;54.912;-8.392;2022-12-19T07:50:03;97565.72;;;29.45;79.61
64404;BME280;50726;54.912;-8.392;2022-12-19T07:52:31;97552.84;;;30.07;78.88
64404;BME280;50726;54.912;-8.392;2022-12-19T07:54:57;97541.88;;;29.61;81.23
64404;BME280;50726;54.912;-8.392;2022-12-19T07:57:27;97547.00;;;31.10;77.46
64404;BME280;50726;54.912;-8.392;2022-12-19T07:59:52;97538.94;;;29.74;76.91
64404;BME280;50726;54.912;-8.392;2022-12-19T08:02:18;97537.28;;;28.52;81.65
64404;BME280;50726;54.912;-8.392;2022-12-19T08:04:46;97529.44;;;29.36;81.79
64404;BME280;50726;54.912;-8.392;2022-12-19T08:07:13;97534.19;;;29.10;84.88
64404;BME280;50726;54.912;-8.392;2022-12-19T08:09:42;97536.50;;;30.38;77.57
64404;BME280;50726;54.912;-8.392;2022-12-19T08:12:09;97537.91;;;29.76;83.25
64404;BME280;50726;54.912;-8.392;2022-12-19T08:14:35;97557.84;;;30.39;79.21
64404;BME280;50726;54.912;-8.392;2022-12-19T08:17:00;97558.63;;;29.63;81.05
64404;BME280;50726;54.912;-8.392;2022-12-19T08:19:26;97549.19;;;30.66;77.92
64404;BME280;50726;54.912;-8.392;2022-12-19T08:21:52;97538.78;;;31.33;74.21
64404;BME280;50726;54.912;-8.392;2022-12-19T08:24:18;97562.78;;;30.31;76.65
64404;BME280;50726;54.912;-8.392;2022-12-19T08:26:43;97548.75;;;30.58;74.35
64404;BME280;50726;54.912;-8.392;2022-12-19T08:29:09;97560.41;;;31.04;71.10
64404;BME280;50726;54.912;-8.392;2022-12-19T08:31:35;97553.41;;;31.20;71.00
64404;BME280;50726;54.912;-8.392;2022-12-19T08:34:01;97551.41;;;30.99;72.63
64404;BME280;50726;54.912;-8.392;2022-12-19T08:36:27;97554.22;;;31.90;70.07
64404;BME280;50726;54.912;-8.392;2022-12-19T08:38:53;97543.78;;;30.66;72.82
64404;BME280;50726;54.912;-8.392;2022-12-19T08:41:20;97550.94;;;32.77;68.44
64404;BME280;50726;54.912;-8.392;2022-12-19T08:43:52;97566.19;;;31.42;70.26
64404;BME280;50726;54.912;-8.392;2022-12-19T08:46:20;97553.25;;;31.61;69.92
64404;BME280;50726;54.912;-8.392;2022-12-19T08:48:55;97543.00;;;30.25;72.04
64404;BME280;50726;54.912;-8.392;2022-12-19T08:51:35;97552.53;;;33.71;64.89
64404;BME280;50726;54.912;-8.392;2022-12-19T08:54:04;97568.19;;;32.26;68.49
64404;BME280;50726;54.912;-8.392;2022-12-19T08:56:35;97566.19;;;31.42;70.75
64404;BME280;50726;54.912;-8.392;2022-12-19T08:59:03;97567.38;;;31.69;73.01
64404;BME280;50726;54.912;-8.392;2022-12-19T09:01:51;97564.41;;;30.73;71.88
64404;BME280;50726;54.912;-8.392;2022-12-19T09:04:18;97565.84;;;28.65;81.41
64404;BME280;50726;54.912;-8.392;2022-12-19T09:06:50;97566.94;;;30.09;77.83
64404;BME280;50726;54.912;-8.392;2022-12-19T09:09:23;97577.84;;;29.79;77.40
64404;BME280;50726;54.912;-8.392;2022-12-19T09:11:55;97569.28;;;30.59;77.53
64404;BME280;50726;54.912;-8.392;2022-12-19T09:14:24;97559.78;;;31.66;74.20
64404;BME280;50726;54.912;-8.392;2022-12-19T09:16:52;97565.13;;;31.60;72.23
64404;BME280;50726;54.912;-8.392;2022-12-19T09:19:38;97565.84;;;31.39;72.08
64404;BME280;50726;54.912;-8.392;2022-12-19T09:22:08;97547.72;;;30.59;72.81
64404;BME280;50726;54.912;-8.392;2022-12-19T09:24:34;97552.31;;;29.03;76.86
64404;BME280;50726;54.912;-8.392;2022-12-19T09:27:29;97550.59;;;32.73;69.35
64404;BME280;50726;54.912;-8.392;2022-12-19T09:30:01;97543.59;;;32.50;68.55
64404;BME280;50726;54.912;-8.392;2022-12-19T09:32:31;97537.81;;;31.11;71.07
64404;BME280;50726;54.912;-8.392;2022-12-19T09:35:02;97537.34;;;30.97;72.19
64404;BME280;50726;54.912;-8.392;2022-12-19T09:37:48;97542.44;;;31.10;73.24
64404;BME280;50726;54.912;-8.392;2022-12-19T09:45:42;97520.91;;;33.87;64.87
64404;BME280;50726;54.912;-8.392;2022-12-19T09:48:23;97518.97;;;32.74;66.74
64404;BME280;50726;54.912;-8.392;2022-12-19T09:50:55;97518.91;;;33.29;65.72
64404;BME280;50726;54.912;-8.392;2022-12-19T09:56:39;97513.34;;;32.53;65.53
64404;BME280;50726;54.912;-8.392;2022-12-19T09:59:12;97536.41;;;32.38;65.52
64404;BME280;50726;54.912;-8.392;2022-12-19T10:08:21;97516.03;;;32.53;64.89
64404;BME280;50726;54.912;-8.392;2022-12-19T10:11:20;97539.31;;;32.09;68.09
64404;BME280;50726;54.912;-8.392;2022-12-19T10:23:10;97528.44;;;34.38;63.02
64404;BME280;50726;54.912;-8.392;2022-12-19T10:28:11;97528.91;;;35.25;59.87
64404;BME280;50726;54.912;-8.392;2022-12-19T10:30:55;97526.22;;;36.22;57.92
64404;BME280;50726;54.912;-8.392;2022-12-19T10:33:37;97525.88;;;35.58;58.93
64404;BME280;50726;54.912;-8.392;2022-12-19T10:36:09;97516.44;;;33.60;64.20
64404;BME280;50726;54.912;-8.392;2022-12-19T10:41:30;97520.41;;;33.90;61.61
64404;BME280;50726;54.912;-8.392;2022-12-19T10:44:05;97509.75;;;34.42;59.99
64404;BME280;50726;54.912;-8.392;2022-12-19T10:46:40;97521.31;;;33.63;60.87
64404;BME280;50726;54.912;-8.392;2022-12-19T10:49:15;97529.06;;;33.11;62.53
64404;BME280;50726;54.912;-8.392;2022-12-19T10:54:22;97528.00;;;31.73;65.59
64404;BME280;50726;54.912;-8.392;2022-12-19T10:57:26;97520.00;;;34.24;61.20
64404;BME280;50726;54.912;-8.392;2022-12-19T11:00:16;97536.56;;;33.74;61.21
64404;BME280;50726;54.912;-8.392;2022-12-19T11:03:14;97549.75;;;33.28;62.79
64404;BME280;50726;54.912;-8.392;2022-12-19T11:05:55;97546.50;;;32.21;63.80
64404;BME280;50726;54.912;-8.392;2022-12-19T11:09:40;97530.63;;;33.02;63.39
64404;BME280;50726;54.912;-8.392;2022-12-19T11:12:15;97533.03;;;33.03;63.38
64404;BME280;50726;54.912;-8.392;2022-12-19T11:14:49;97550.81;;;33.21;64.05
64404;BME280;50726;54.912;-8.392;2022-12-19T11:17:36;97537.13;;;32.78;63.52
64404;BME280;50726;54.912;-8.392;2022-12-19T11:20:17;97520.84;;;33.33;61.90
64404;BME280;50726;54.912;-8.392;2022-12-19T11:22:51;97531.00;;;32.38;62.69
64404;BME280;50726;54.912;-8.392;2022-12-19T11:25:20;97543.25;;;32.68;62.99
64404;BME280;50726;54.912;-8.392;2022-12-19T11:27:47;97531.53;;;31.91;63.00
64404;BME280;50726;54.912;-8.392;2022-12-19T11:30:26;97522.03;;;32.10;63.66
64404;BME280;50726;54.912;-8.392;2022-12-19T11:33:11;97491.59;;;31.58;65.37
64404;BME280;50726;54.912;-8.392;2022-12-19T11:35:51;97540.78;;;31.26;66.37
64404;BME280;50726;54.912;-8.392;2022-12-19T11:38:25;97534.25;;;33.51;61.87
64404;BME280;50726;54.912;-8.392;2022-12-19T11:40:57;97526.47;;;31.08;67.10
64404;BME280;50726;54.912;-8.392;2022-12-19T11:52:02;97551.19;;;30.30;72.13
64404;BME280;50726;54.912;-8.392;2022-12-19T11:54:38;97567.50;;;31.57;67.31
64404;BME280;50726;54.912;-8.392;2022-12-19T11:57:10;97645.25;;;33.45;63.48
64404;BME280;50726;54.912;-8.392;2022-12-19T11:59:38;97590.81;;;31.63;64.59
64404;BME280;50726;54.912;-8.392;2022-12-19T12:05:20;97648.16;;;32.22;60.21
64404;BME280;50726;54.912;-8.392;2022-12-19T12:08:02;97633.16;;;30.99;62.05
64404;BME280;50726;54.912;-8.392;2022-12-19T12:10:47;97613.22;;;31.98;61.10
64404;BME280;50726;54.912;-8.392;2022-12-19T12:13:33;97651.91;;;30.77;65.15
64404;BME280;50726;54.912;-8.392;2022-12-19T12:16:08;97658.22;;;28.71;66.82
64404;BME280;50726;54.912;-8.392;2022-12-19T12:19:13;97672.75;;;29.50;67.26
64404;BME280;50726;54.912;-8.392;2022-12-19T12:24:53;97685.00;;;29.46;67.26
64404;BME280;50726;54.912;-8.392;2022-12-19T12:38:50;97714.16;;;31.28;58.95
64404;BME280;50726;54.912;-8.392;2022-12-19T12:41:38;97715.63;;;30.42;59.74
64404;BME280;50726;54.912;-8.392;2022-12-19T12:44:26;97701.53;;;30.40;60.77
64404;BME280;50726;54.912;-8.392;2022-12-19T12:47:12;97747.78;;;31.96;56.84
64404;BME280;50726;54.912;-8.392;2022-12-19T12:49:59;97727.81;;;31.97;57.77
64404;BME280;50726;54.912;-8.392;2022-12-19T12:52:47;97764.22;;;29.38;60.30
64404;BME280;50726;54.912;-8.392;2022-12-19T12:55:33;97786.34;;;30.01;58.78
64404;BME280;50726;54.912;-8.392;2022-12-19T12:58:01;97732.41;;;28.79;61.28
64404;BME280;50726;54.912;-8.392;2022-12-19T13:00:32;97765.03;;;29.57;59.62
64404;BME280;50726;54.912;-8.392;2022-12-19T13:03:18;97732.94;;;31.35;57.03
64404;BME280;50726;54.912;-8.392;2022-12-19T13:10:57;97781.19;;;28.83;63.06
64404;BME280;50726;54.912;-8.392;2022-12-19T13:13:52;97871.38;;;30.83;57.65
64404;BME280;50726;54.912;-8.392;2022-12-19T13:19:39;97812.53;;;26.35;65.57
64404;BME280;50726;54.912;-8.392;2022-12-19T13:27:50;97791.09;;;26.48;62.72
64404;BME280;50726;54.912;-8.392;2022-12-19T13:30:20;97868.56;;;26.16;65.06
64404;BME280;50726;54.912;-8.392;2022-12-19T13:38:35;97883.44;;;26.86;62.88
64404;BME280;50726;54.912;-8.392;2022-12-19T13:43:34;97879.44;;;27.43;60.55
64404;BME280;50726;54.912;-8.392;2022-12-19T13:48:54;97902.63;;;27.83;59.32
64404;BME280;50726;54.912;-8.392;2022-12-19T13:51:21;97892.44;;;27.46;57.69
64404;BME280;50726;54.912;-8.392;2022-12-19T13:53:51;97920.38;;;27.25;57.05
64404;BME280;50726;54.912;-8.392;2022-12-19T13:56:19;97919.94;;;26.67;58.53
64404;BME280;50726;54.912;-8.392;2022-12-19T13:58:53;97904.69;;;26.88;57.94
64404;BME280;50726;54.912;-8.392;2022-12-19T14:01:29;97899.66;;;27.98;56.15
64404;BME280;50726;54.912;-8.392;2022-12-19T14:04:02;97909.22;;;27.94;57.02
64404;BME280;50726;54.912;-8.392;2022-12-19T14:06:43;97967.94;;;29.19;54.74
64404;BME280;50726;54.912;-8.392;2022-12-19T14:09:34;97964.63;;;25.48;67.42
64404;BME280;50726;54.912;-8.392;2022-12-19T14:12:05;97984.44;;;25.90;63.37
64404;BME280;50726;54.912;-8.392;2022-12-19T14:14:55;97960.41;;;25.61;65.56
64404;BME280;50726;54.912;-8.392;2022-12-19T14:17:39;97997.97;;;25.81;61.72
64404;BME280;50726;54.912;-8.392;2022-12-19T14:20:18;98003.75;;;25.21;60.54
64404;BME280;50726;54.912;-8.392;2022-12-19T14:23:09;97989.06;;;25.10;60.00
64404;BME280;50726;54.912;-8.392;2022-12-19T14:25:53;97976.28;;;25.63;58.08
64404;BME280;50726;54.912;-8.392;2022-12-19T14:31:06;97966.97;;;26.00;55.78
64404;BME280;50726;54.912;-8.392;2022-12-19T14:33:43;98001.34;;;25.55;55.49
64404;BME280;50726;54.912;-8.392;2022-12-19T14:36:30;97937.53;;;27.83;52.57
64404;BME280;50726;54.912;-8.392;2022-12-19T14:39:17;97983.28;;;28.61;51.44
64404;BME280;50726;54.912;-8.392;2022-12-19T14:41:48;97982.69;;;28.06;50.14
64404;BME280;50726;54.912;-8.392;2022-12-19T14:49:52;97965.44;;;28.66;47.20
64404;BME280;50726;54.912;-8.392;2022-12-19T14:52:42;97958.94;;;28.03;49.44
64404;BME280;50726;54.912;-8.392;2022-12-19T14:57:49;97998.16;;;27.58;49.10
64404;BME280;50726;54.912;-8.392;2022-12-19T15:00:32;98004.38;;;26.98;49.04
64404;BME280;50726;54.912;-8.392;2022-12-19T15:03:07;97980.69;;;26.26;51.92
64404;BME280;50726;54.912;-8.392;2022-12-19T15:05:33;98001.44;;;28.20;47.68
64404;BME280;50726;54.912;-8.392;2022-12-19T15:08:00;97980.38;;;26.90;49.96
64404;BME280;50726;54.912;-8.392;2022-12-19T15:10:29;98008.69;;;26.92;52.34
64404;BME280;50726;54.912;-8.392;2022-12-19T15:13:00;98034.78;;;25.72;54.16
64404;BME280;50726;54.912;-8.392;2022-12-19T15:15:52;98037.88;;;26.11;53.55
64404;BME280;50726;54.912;-8.392;2022-12-19T15:20:45;98039.69;;;25.62;55.48
64404;BME280;50726;54.912;-8.392;2022-12-19T15:23:10;98038.69;;;24.76;57.89
64404;BME280;50726;54.912;-8.392;2022-12-19T15:25:37;98047.38;;;25.00;54.53
64404;BME280;50726;54.912;-8.392;2022-12-19T15:28:17;98068.16;;;24.61;52.22
64404;BME280;50726;54.912;-8.392;2022-12-19T15:30:56;98039.59;;;24.61;55.20
64404;BME280;50726;54.912;-8.392;2022-12-19T15:33:23;98061.28;;;25.39;52.63
64404;BME280;50726;54.912;-8.392;2022-12-19T15:35:48;98056.41;;;24.25;56.39
64404;BME280;50726;54.912;-8.392;2022-12-19T15:38:14;98061.69;;;25.36;56.93
64404;BME280;50726;54.912;-8.392;2022-12-19T15:40:40;98046.25;;;25.09;61.86
64404;BME280;50726;54.912;-8.392;2022-12-19T15:43:17;98039.44;;;24.48;57.96